sensor_id;sensor_type;location;lat;lon;timestamp;pressure;altitude;pressure_sealevel;temperature;humidity
8160;BME280;27404;52.398;9.646;2024-02-23T00:00:04;97638.91;;;7.61;100.00
8160;BME280;27404;52.398;9.646;2024-02-23T00:02:31;97644.94;;;7.58;100.00
8160;BME280;27404;52.398;9.646;2024-02-23T00:04:57;97655.00;;;7.57;100.00
8160;BME280;27404;52.398;9.646;2024-02-23T00:07:23;97668.59;;;7.57;100.00
8160;BME280;27404;52.398;9.646;2024-02-23T00:09:48;97665.41;;;7.50;100.00
8160;BME280;27404;52.398;9.646;2024-02-23T00:12:14;97684.13;;;7.51;100.00
8160;BME280;27404;52.398;9.646;2024-02-23T00:14:39;97683.88;;;7.53;100.00
8160;BME280;27404;52.398;9.646;2024-02-23T00:17:05;97708.03;;;7.54;100.00
8160;BME280;27404;52.398;9.646;2024-02-23T00:19:31;97688.94;;;7.60;100.00
8160;BME280;27404;52.398;9.646;2024-02-23T00:21:57;97700.97;;;7.53;100.00
8160;BME280;27404;52.398;9.646;2024-02-23T00:24:26;97690.63;;;7.55;100.00
8160;BME280;27404;52.398;9.646;2024-02-23T00:26:52;97700.44;;;7.51;100.00
8160;BME280;27404;52.398;9.646;2024-02-23T00:29:18;97704.50;;;7.54;100.00
8160;BME280;27404;52.398;9.646;2024-02-23T00:31:43;97711.31;;;7.51;100.00
8160;BME280;27404;52.398;9.646;2024-02-23T00:34:11;97704.63;;;7.44;100.00
8160;BME280;27404;52.398;9.646;2024-02-23T00:36:40;97713.00;;;7.47;100.00
8160;BME280;27404;52.398;9.646;2024-02-23T00:39:08;97735.25;;;7.49;100.00
8160;BME280;27404;52.398;9.646;2024-02-23T00:41:34;97730.66;;;7.50;100.00
8160;BME280;27404;52.398;9.646;2024-02-23T00:44:00;97711.63;;;7.50;100.00
8160;BME280;27404;52.398;9.646;2024-02-23T00:46:26;97719.53;;;7.46;100.00
8160;BME280;27404;52.398;9.646;2024-02-23T00:48:51;97726.25;;;7.54;100.00
8160;BME280;27404;52.398;9.646;2024-02-23T00:51:17;97727.09;;;7.49;100.00
8160;BME280;27404;52.398;9.646;2024-02-23T00:53:42;97722.03;;;7.43;100.00
8160;BME280;27404;52.398;9.646;2024-02-23T00:56:07;97723.97;;;7.37;100.00
8160;BME280;27404;52.398;9.646;2024-02-23T00:58:33;97746.84;;;7.31;100.00
8160;BME280;27404;52.398;9.646;2024-02-23T01:00:59;97737.59;;;7.32;100.00
8160;BME280;27404;52.398;9.646;2024-02-23T01:03:24;97745.22;;;7.30;100.00
8160;BME280;27404;52.398;9.646;2024-02-23T01:05:50;97743.03;;;7.32;100.00
8160;BME280;27404;52.398;9.646;2024-02-23T01:08:15;97743.69;;;7.23;100.00
8160;BME280;27404;52.398;9.646;2024-02-23T01:10:41;97753.00;;;7.12;100.00
8160;BME280;27404;52.398;9.646;2024-02-23T01:13:06;97755.41;;;7.14;100.00
8160;BME280;27404;52.398;9.646;2024-02-23T01:15:32;97774.66;;;7.22;100.00
8160;BME280;27404;52.398;9.646;2024-02-23T01:17:57;97779.53;;;7.25;100.00
8160;BME280;27404;52.398;9.646;2024-02-23T01:20:23;97781.72;;;7.23;100.00
8160;BME280;27404;52.398;9.646;2024-02-23T01:22:48;97799.16;;;7.17;100.00
8160;BME280;27404;52.398;9.646;2024-02-23T01:25:13;97813.28;;;7.14;100.00
8160;BME280;27404;52.398;9.646;2024-02-23T01:27:41;97830.44;;;7.09;100.00
8160;BME280;27404;52.398;9.646;2024-02-23T01:30:07;97841.34;;;6.99;100.00
8160;BME280;27404;52.398;9.646;2024-02-23T01:32:32;97857.19;;;6.92;100.00
8160;BME280;27404;52.398;9.646;2024-02-23T01:34:58;97846.91;;;6.78;100.00
8160;BME280;27404;52.398;9.646;2024-02-23T01:37:23;97868.66;;;6.73;100.00
8160;BME280;27404;52.398;9.646;2024-02-23T01:39:49;97890.13;;;6.70;100.00
8160;BME280;27404;52.398;9.646;2024-02-23T01:42:14;97904.03;;;6.52;100.00
8160;BME280;27404;52.398;9.646;2024-02-23T01:44:39;97933.66;;;6.33;100.00
8160;BME280;27404;52.398;9.646;2024-02-23T01:47:05;97953.50;;;6.03;100.00
8160;BME280;27404;52.398;9.646;2024-02-23T01:49:31;97977.88;;;5.82;100.00
8160;BME280;27404;52.398;9.646;2024-02-23T01:52:00;97997.91;;;5.66;100.00
8160;BME280;27404;52.398;9.646;2024-02-23T01:54:26;97990.28;;;5.42;100.00
8160;BME280;27404;52.398;9.646;2024-02-23T01:56:53;98003.22;;;5.24;100.00
8160;BME280;27404;52.398;9.646;2024-02-23T01:59:19;98029.78;;;5.22;100.00
8160;BME280;27404;52.398;9.646;2024-02-23T02:01:45;98039.44;;;5.08;100.00
8160;BME280;27404;52.398;9.646;2024-02-23T02:04:11;98054.94;;;5.12;100.00
8160;BME280;27404;52.398;9.646;2024-02-23T02:06:36;98055.13;;;5.00;100.00
8160;BME280;27404;52.398;9.646;2024-02-23T02:09:02;98078.34;;;4.86;100.00
8160;BME280;27404;52.398;9.646;2024-02-23T02:11:28;98089.66;;;4.78;100.00
8160;BME280;27404;52.398;9.646;2024-02-23T02:13:53;98095.78;;;4.68;100.00
8160;BME280;27404;52.398;9.646;2024-02-23T02:16:19;98111.72;;;4.59;100.00
8160;BME280;27404;52.398;9.646;2024-02-23T02:18:44;98113.56;;;4.53;100.00
8160;BME280;27404;52.398;9.646;2024-02-23T02:21:11;98118.66;;;4.50;100.00
8160;BME280;27404;52.398;9.646;2024-02-23T02:23:37;98117.81;;;4.44;100.00
8160;BME280;27404;52.398;9.646;2024-02-23T02:26:02;98118.41;;;4.51;100.00
8160;BME280;27404;52.398;9.646;2024-02-23T02:28:28;98115.63;;;4.41;100.00
8160;BME280;27404;52.398;9.646;2024-02-23T02:30:54;98129.16;;;4.41;100.00
8160;BME280;27404;52.398;9.646;2024-02-23T02:33:20;98134.06;;;4.44;100.00
8160;BME280;27404;52.398;9.646;2024-02-23T02:35:45;98147.00;;;4.42;100.00
8160;BME280;27404;52.398;9.646;2024-02-23T02:38:11;98148.88;;;4.41;100.00
8160;BME280;27404;52.398;9.646;2024-02-23T02:40:37;98154.31;;;4.41;100.00
8160;BME280;27404;52.398;9.646;2024-02-23T02:43:03;98159.47;;;4.43;100.00
8160;BME280;27404;52.398;9.646;2024-02-23T02:45:28;98162.72;;;4.45;100.00
8160;BME280;27404;52.398;9.646;2024-02-23T02:47:54;98172.13;;;4.37;100.00
8160;BME280;27404;52.398;9.646;2024-02-23T02:50:19;98180.78;;;4.39;100.00
8160;BME280;27404;52.398;9.646;2024-02-23T02:52:44;98192.50;;;4.45;100.00
8160;BME280;27404;52.398;9.646;2024-02-23T02:55:10;98179.97;;;4.39;100.00
8160;BME280;27404;52.398;9.646;2024-02-23T02:57:35;98181.84;;;4.38;100.00
8160;BME280;27404;52.398;9.646;2024-02-23T03:00:03;98179.66;;;4.35;100.00
8160;BME280;27404;52.398;9.646;2024-02-23T03:02:33;98197.53;;;4.36;100.00
8160;BME280;27404;52.398;9.646;2024-02-23T03:04:59;98191.31;;;4.36;100.00
8160;BME280;27404;52.398;9.646;2024-02-23T03:07:24;98194.78;;;4.31;100.00
8160;BME280;27404;52.398;9.646;2024-02-23T03:09:50;98191.97;;;4.21;100.00
8160;BME280;27404;52.398;9.646;2024-02-23T03:12:16;98191.09;;;4.15;100.00
8160;BME280;27404;52.398;9.646;2024-02-23T03:14:42;98193.50;;;4.11;100.00
8160;BME280;27404;52.398;9.646;2024-02-23T03:17:08;98201.06;;;4.09;100.00
8160;BME280;27404;52.398;9.646;2024-02-23T03:19:37;98211.25;;;4.02;100.00
8160;BME280;27404;52.398;9.646;2024-02-23T03:22:03;98210.16;;;4.03;100.00
8160;BME280;27404;52.398;9.646;2024-02-23T03:24:29;98215.56;;;4.03;100.00
8160;BME280;27404;52.398;9.646;2024-02-23T03:26:54;98221.84;;;4.09;100.00
8160;BME280;27404;52.398;9.646;2024-02-23T03:29:21;98230.34;;;4.18;100.00
8160;BME280;27404;52.398;9.646;2024-02-23T03:31:49;98233.56;;;4.14;100.00
8160;BME280;27404;52.398;9.646;2024-02-23T03:34:15;98241.16;;;4.18;100.00
8160;BME280;27404;52.398;9.646;2024-02-23T03:36:40;98246.56;;;4.18;100.00
8160;BME280;27404;52.398;9.646;2024-02-23T03:39:06;98249.50;;;4.16;100.00
8160;BME280;27404;52.398;9.646;2024-02-23T03:41:32;98241.66;;;4.14;100.00
8160;BME280;27404;52.398;9.646;2024-02-23T03:43:57;98255.06;;;4.04;100.00
8160;BME280;27404;52.398;9.646;2024-02-23T03:46:24;98247.94;;;3.98;100.00
8160;BME280;27404;52.398;9.646;2024-02-23T03:48:49;98253.09;;;3.99;100.00
8160;BME280;27404;52.398;9.646;2024-02-23T03:51:15;98255.56;;;4.01;100.00
8160;BME280;27404;52.398;9.646;2024-02-23T03:53:41;98273.97;;;4.04;100.00
8160;BME280;27404;52.398;9.646;2024-02-23T03:56:07;98274.56;;;4.06;100.00
8160;BME280;27404;52.398;9.646;2024-02-23T03:58:32;98276.81;;;4.14;100.00
8160;BME280;27404;52.398;9.646;2024-02-23T04:00:57;98286.81;;;4.14;100.00
8160;BME280;27404;52.398;9.646;2024-02-23T04:03:23;98274.91;;;4.15;100.00
8160;BME280;27404;52.398;9.646;2024-02-23T04:05:49;98286.06;;;4.19;100.00
8160;BME280;27404;52.398;9.646;2024-02-23T04:08:14;98291.41;;;4.13;100.00
8160;BME280;27404;52.398;9.646;2024-02-23T04:10:40;98304.59;;;4.10;100.00
8160;BME280;27404;52.398;9.646;2024-02-23T04:13:05;98301.38;;;4.13;100.00
8160;BME280;27404;52.398;9.646;2024-02-23T04:15:30;98313.97;;;4.24;100.00
8160;BME280;27404;52.398;9.646;2024-02-23T04:17:56;98307.28;;;4.32;100.00
8160;BME280;27404;52.398;9.646;2024-02-23T04:20:21;98314.47;;;4.43;100.00
8160;BME280;27404;52.398;9.646;2024-02-23T04:22:47;98319.13;;;4.48;100.00
8160;BME280;27404;52.398;9.646;2024-02-23T04:25:13;98324.91;;;4.57;100.00
8160;BME280;27404;52.398;9.646;2024-02-23T04:27:38;98326.53;;;4.58;100.00
8160;BME280;27404;52.398;9.646;2024-02-23T04:30:04;98320.31;;;4.57;100.00
8160;BME280;27404;52.398;9.646;2024-02-23T04:32:31;98326.03;;;4.61;100.00
8160;BME280;27404;52.398;9.646;2024-02-23T04:34:56;98322.75;;;4.59;100.00
8160;BME280;27404;52.398;9.646;2024-02-23T04:37:22;98322.53;;;4.61;100.00
8160;BME280;27404;52.398;9.646;2024-02-23T04:39:47;98331.75;;;4.65;100.00
8160;BME280;27404;52.398;9.646;2024-02-23T04:42:13;98329.56;;;4.62;100.00
8160;BME280;27404;52.398;9.646;2024-02-23T04:44:38;98328.94;;;4.54;100.00
8160;BME280;27404;52.398;9.646;2024-02-23T04:47:04;98321.00;;;4.48;100.00
8160;BME280;27404;52.398;9.646;2024-02-23T04:49:29;98326.25;;;4.54;100.00
8160;BME280;27404;52.398;9.646;2024-02-23T04:51:55;98330.06;;;4.58;100.00
8160;BME280;27404;52.398;9.646;2024-02-23T04:54:20;98332.72;;;4.53;100.00
8160;BME280;27404;52.398;9.646;2024-02-23T04:56:47;98345.28;;;4.42;100.00
8160;BME280;27404;52.398;9.646;2024-02-23T04:59:13;98351.19;;;4.39;100.00
8160;BME280;27404;52.398;9.646;2024-02-23T05:01:38;98348.88;;;4.48;100.00
8160;BME280;27404;52.398;9.646;2024-02-23T05:04:04;98373.31;;;4.53;100.00
8160;BME280;27404;52.398;9.646;2024-02-23T05:06:30;98366.69;;;4.44;100.00
8160;BME280;27404;52.398;9.646;2024-02-23T05:08:55;98374.75;;;4.39;100.00
8160;BME280;27404;52.398;9.646;2024-02-23T05:11:21;98373.97;;;4.43;100.00
8160;BME280;27404;52.398;9.646;2024-02-23T05:13:47;98371.53;;;4.42;100.00
8160;BME280;27404;52.398;9.646;2024-02-23T05:16:16;98375.53;;;4.39;100.00
8160;BME280;27404;52.398;9.646;2024-02-23T05:18:42;98377.50;;;4.44;100.00
8160;BME280;27404;52.398;9.646;2024-02-23T05:21:09;98378.75;;;4.36;100.00
8160;BME280;27404;52.398;9.646;2024-02-23T05:23:35;98392.22;;;4.31;100.00
8160;BME280;27404;52.398;9.646;2024-02-23T05:26:00;98391.09;;;4.27;100.00
8160;BME280;27404;52.398;9.646;2024-02-23T05:28:26;98394.88;;;4.26;100.00
8160;BME280;27404;52.398;9.646;2024-02-23T05:30:51;98407.00;;;4.23;100.00
8160;BME280;27404;52.398;9.646;2024-02-23T05:33:17;98404.63;;;4.27;100.00
8160;BME280;27404;52.398;9.646;2024-02-23T05:35:46;98411.22;;;4.36;100.00
8160;BME280;27404;52.398;9.646;2024-02-23T05:38:16;98412.91;;;4.42;100.00
8160;BME280;27404;52.398;9.646;2024-02-23T05:40:42;98409.97;;;4.44;100.00
8160;BME280;27404;52.398;9.646;2024-02-23T05:43:08;98415.88;;;4.41;100.00
8160;BME280;27404;52.398;9.646;2024-02-23T05:45:33;98418.03;;;4.39;100.00
8160;BME280;27404;52.398;9.646;2024-02-23T05:47:59;98421.59;;;4.44;100.00
8160;BME280;27404;52.398;9.646;2024-02-23T05:50:24;98430.63;;;4.50;100.00
8160;BME280;27404;52.398;9.646;2024-02-23T05:52:50;98426.59;;;4.53;100.00
8160;BME280;27404;52.398;9.646;2024-02-23T05:55:15;98432.34;;;4.56;100.00
8160;BME280;27404;52.398;9.646;2024-02-23T05:57:41;98436.91;;;4.56;100.00
8160;BME280;27404;52.398;9.646;2024-02-23T06:00:07;98424.22;;;4.56;100.00
8160;BME280;27404;52.398;9.646;2024-02-23T06:02:35;98434.53;;;4.59;100.00
8160;BME280;27404;52.398;9.646;2024-02-23T06:05:01;98434.19;;;4.56;100.00
8160;BME280;27404;52.398;9.646;2024-02-23T06:07:26;98430.44;;;4.57;100.00
8160;BME280;27404;52.398;9.646;2024-02-23T06:09:55;98432.84;;;4.53;100.00
8160;BME280;27404;52.398;9.646;2024-02-23T06:12:21;98429.06;;;4.54;100.00
8160;BME280;27404;52.398;9.646;2024-02-23T06:14:47;98437.59;;;4.46;100.00
8160;BME280;27404;52.398;9.646;2024-02-23T06:17:12;98438.91;;;4.43;100.00
8160;BME280;27404;52.398;9.646;2024-02-23T06:19:38;98449.50;;;4.45;100.00
8160;BME280;27404;52.398;9.646;2024-02-23T06:22:03;98447.50;;;4.40;100.00
8160;BME280;27404;52.398;9.646;2024-02-23T06:24:29;98455.41;;;4.42;100.00
8160;BME280;27404;52.398;9.646;2024-02-23T06:26:54;98467.28;;;4.41;100.00
8160;BME280;27404;52.398;9.646;2024-02-23T06:29:20;98472.78;;;4.46;100.00
8160;BME280;27404;52.398;9.646;2024-02-23T06:31:45;98474.97;;;4.49;100.00
8160;BME280;27404;52.398;9.646;2024-02-23T06:34:15;98468.50;;;4.50;100.00
8160;BME280;27404;52.398;9.646;2024-02-23T06:36:40;98477.63;;;4.44;100.00
8160;BME280;27404;52.398;9.646;2024-02-23T06:39:05;98477.03;;;4.42;100.00
8160;BME280;27404;52.398;9.646;2024-02-23T06:41:31;98478.97;;;4.47;100.00
8160;BME280;27404;52.398;9.646;2024-02-23T06:43:57;98482.75;;;4.45;100.00
8160;BME280;27404;52.398;9.646;2024-02-23T06:46:22;98495.72;;;4.43;100.00
8160;BME280;27404;52.398;9.646;2024-02-23T06:48:48;98492.50;;;4.47;100.00
8160;BME280;27404;52.398;9.646;2024-02-23T06:51:13;98500.41;;;4.48;100.00
8160;BME280;27404;52.398;9.646;2024-02-23T06:53:40;98495.78;;;4.49;100.00
8160;BME280;27404;52.398;9.646;2024-02-23T06:56:06;98502.34;;;4.53;100.00
8160;BME280;27404;52.398;9.646;2024-02-23T06:58:31;98506.13;;;4.52;100.00
8160;BME280;27404;52.398;9.646;2024-02-23T07:00:57;98508.31;;;4.55;100.00
8160;BME280;27404;52.398;9.646;2024-02-23T07:03:22;98506.91;;;4.69;100.00
8160;BME280;27404;52.398;9.646;2024-02-23T07:05:48;98511.25;;;4.70;100.00
8160;BME280;27404;52.398;9.646;2024-02-23T07:08:15;98517.47;;;4.71;100.00
8160;BME280;27404;52.398;9.646;2024-02-23T07:10:41;98518.13;;;4.78;100.00
8160;BME280;27404;52.398;9.646;2024-02-23T07:13:07;98525.16;;;4.79;100.00
8160;BME280;27404;52.398;9.646;2024-02-23T07:15:33;98527.31;;;4.77;100.00
8160;BME280;27404;52.398;9.646;2024-02-23T07:17:59;98529.50;;;4.80;100.00
8160;BME280;27404;52.398;9.646;2024-02-23T07:20:24;98542.38;;;4.90;100.00
8160;BME280;27404;52.398;9.646;2024-02-23T07:22:50;98536.78;;;4.97;100.00
8160;BME280;27404;52.398;9.646;2024-02-23T07:25:20;98546.03;;;5.01;100.00
8160;BME280;27404;52.398;9.646;2024-02-23T07:27:46;98550.94;;;5.04;100.00
8160;BME280;27404;52.398;9.646;2024-02-23T07:30:14;98559.88;;;5.04;100.00
8160;BME280;27404;52.398;9.646;2024-02-23T07:32:41;98553.41;;;5.06;100.00
8160;BME280;27404;52.398;9.646;2024-02-23T07:35:07;98559.44;;;5.13;100.00
8160;BME280;27404;52.398;9.646;2024-02-23T07:37:32;98557.81;;;5.12;100.00
8160;BME280;27404;52.398;9.646;2024-02-23T07:39:58;98561.22;;;5.24;100.00
8160;BME280;27404;52.398;9.646;2024-02-23T07:42:23;98572.38;;;5.28;100.00
8160;BME280;27404;52.398;9.646;2024-02-23T07:44:49;98572.56;;;5.21;100.00
8160;BME280;27404;52.398;9.646;2024-02-23T07:47:14;98584.97;;;5.17;100.00
8160;BME280;27404;52.398;9.646;2024-02-23T07:49:40;98576.03;;;5.16;100.00
8160;BME280;27404;52.398;9.646;2024-02-23T07:52:08;98579.03;;;5.20;100.00
8160;BME280;27404;52.398;9.646;2024-02-23T07:54:33;98581.31;;;5.28;100.00
8160;BME280;27404;52.398;9.646;2024-02-23T07:56:59;98590.44;;;5.22;100.00
8160;BME280;27404;52.398;9.646;2024-02-23T07:59:25;98585.94;;;5.28;100.00
8160;BME280;27404;52.398;9.646;2024-02-23T08:01:50;98594.66;;;5.35;100.00
8160;BME280;27404;52.398;9.646;2024-02-23T08:04:16;98595.25;;;5.37;100.00
8160;BME280;27404;52.398;9.646;2024-02-23T08:06:41;98595.88;;;5.44;100.00
8160;BME280;27404;52.398;9.646;2024-02-23T08:09:08;98597.91;;;5.54;100.00
8160;BME280;27404;52.398;9.646;2024-02-23T08:11:34;98603.69;;;5.63;100.00
8160;BME280;27404;52.398;9.646;2024-02-23T08:14:00;98606.25;;;5.75;100.00
8160;BME280;27404;52.398;9.646;2024-02-23T08:16:26;98609.63;;;5.87;100.00
8160;BME280;27404;52.398;9.646;2024-02-23T08:18:52;98623.31;;;5.98;100.00
8160;BME280;27404;52.398;9.646;2024-02-23T08:21:17;98611.28;;;5.88;100.00
8160;BME280;27404;52.398;9.646;2024-02-23T08:23:44;98616.63;;;6.05;100.00
8160;BME280;27404;52.398;9.646;2024-02-23T08:26:10;98620.53;;;6.15;100.00
8160;BME280;27404;52.398;9.646;2024-02-23T08:28:35;98621.88;;;6.12;100.00
8160;BME280;27404;52.398;9.646;2024-02-23T08:31:00;98630.63;;;5.97;100.00
8160;BME280;27404;52.398;9.646;2024-02-23T08:33:26;98630.53;;;6.09;100.00
8160;BME280;27404;52.398;9.646;2024-02-23T08:35:51;98648.59;;;6.26;100.00
8160;BME280;27404;52.398;9.646;2024-02-23T08:38:17;98639.09;;;6.28;100.00
8160;BME280;27404;52.398;9.646;2024-02-23T08:40:43;98647.75;;;6.25;100.00
8160;BME280;27404;52.398;9.646;2024-02-23T08:43:10;98649.75;;;6.35;100.00
8160;BME280;27404;52.398;9.646;2024-02-23T08:45:36;98641.41;;;6.42;100.00
8160;BME280;27404;52.398;9.646;2024-02-23T08:48:01;98646.66;;;6.54;100.00
8160;BME280;27404;52.398;9.646;2024-02-23T08:50:28;98644.84;;;6.64;100.00
8160;BME280;27404;52.398;9.646;2024-02-23T08:52:55;98645.38;;;6.99;100.00
8160;BME280;27404;52.398;9.646;2024-02-23T08:55:20;98649.28;;;7.14;100.00
8160;BME280;27404;52.398;9.646;2024-02-23T08:57:47;98656.34;;;7.15;100.00
8160;BME280;27404;52.398;9.646;2024-02-23T09:00:13;98658.47;;;7.07;100.00
8160;BME280;27404;52.398;9.646;2024-02-23T09:02:39;98668.66;;;6.85;100.00
8160;BME280;27404;52.398;9.646;2024-02-23T09:05:07;98666.28;;;6.99;100.00
8160;BME280;27404;52.398;9.646;2024-02-23T09:07:32;98666.28;;;6.99;100.00
8160;BME280;27404;52.398;9.646;2024-02-23T09:09:58;98660.44;;;6.79;100.00
8160;BME280;27404;52.398;9.646;2024-02-23T09:12:23;98670.72;;;6.72;100.00
8160;BME280;27404;52.398;9.646;2024-02-23T09:14:49;98663.81;;;6.97;100.00
8160;BME280;27404;52.398;9.646;2024-02-23T09:17:14;98673.69;;;7.08;100.00
8160;BME280;27404;52.398;9.646;2024-02-23T09:19:39;98679.25;;;7.29;100.00
8160;BME280;27404;52.398;9.646;2024-02-23T09:22:05;98666.56;;;7.02;100.00
8160;BME280;27404;52.398;9.646;2024-02-23T09:24:31;98669.03;;;7.04;100.00
8160;BME280;27404;52.398;9.646;2024-02-23T09:26:56;98676.56;;;6.91;100.00
8160;BME280;27404;52.398;9.646;2024-02-23T09:29:21;98676.00;;;6.89;100.00
8160;BME280;27404;52.398;9.646;2024-02-23T09:31:47;98681.78;;;7.03;100.00
8160;BME280;27404;52.398;9.646;2024-02-23T09:34:13;98677.69;;;6.95;100.00
8160;BME280;27404;52.398;9.646;2024-02-23T09:36:38;98687.94;;;6.88;100.00
8160;BME280;27404;52.398;9.646;2024-02-23T09:39:04;98684.47;;;6.93;100.00
8160;BME280;27404;52.398;9.646;2024-02-23T09:41:30;98687.97;;;6.93;100.00
8160;BME280;27404;52.398;9.646;2024-02-23T09:43:58;98682.56;;;6.93;100.00
8160;BME280;27404;52.398;9.646;2024-02-23T09:46:25;98690.47;;;6.95;100.00
8160;BME280;27404;52.398;9.646;2024-02-23T09:48:51;98689.25;;;7.18;100.00
8160;BME280;27404;52.398;9.646;2024-02-23T09:51:17;98696.22;;;7.47;100.00
8160;BME280;27404;52.398;9.646;2024-02-23T09:53:43;98702.72;;;7.40;100.00
8160;BME280;27404;52.398;9.646;2024-02-23T09:56:10;98691.41;;;7.16;100.00
8160;BME280;27404;52.398;9.646;2024-02-23T09:58:39;98704.34;;;7.41;100.00
8160;BME280;27404;52.398;9.646;2024-02-23T10:01:06;98703.22;;;7.37;100.00
8160;BME280;27404;52.398;9.646;2024-02-23T10:03:32;98715.19;;;7.36;100.00
8160;BME280;27404;52.398;9.646;2024-02-23T10:05:58;98707.91;;;7.47;100.00
8160;BME280;27404;52.398;9.646;2024-02-23T10:08:24;98718.09;;;7.73;100.00
8160;BME280;27404;52.398;9.646;2024-02-23T10:10:50;98710.53;;;7.80;100.00
8160;BME280;27404;52.398;9.646;2024-02-23T10:13:20;98697.53;;;7.97;100.00
8160;BME280;27404;52.398;9.646;2024-02-23T10:15:47;98708.06;;;7.73;100.00
8160;BME280;27404;52.398;9.646;2024-02-23T10:18:12;98716.50;;;7.82;100.00
8160;BME280;27404;52.398;9.646;2024-02-23T10:20:38;98706.03;;;8.17;100.00
8160;BME280;27404;52.398;9.646;2024-02-23T10:23:04;98710.72;;;8.26;100.00
8160;BME280;27404;52.398;9.646;2024-02-23T10:25:30;98709.63;;;8.38;100.00
8160;BME280;27404;52.398;9.646;2024-02-23T10:27:55;98701.16;;;8.19;100.00
8160;BME280;27404;52.398;9.646;2024-02-23T10:30:20;98687.75;;;7.96;100.00
8160;BME280;27404;52.398;9.646;2024-02-23T10:32:46;98700.13;;;7.61;100.00
8160;BME280;27404;52.398;9.646;2024-02-23T10:35:15;98696.00;;;7.59;100.00
8160;BME280;27404;52.398;9.646;2024-02-23T10:37:48;98695.91;;;7.43;100.00
8160;BME280;27404;52.398;9.646;2024-02-23T10:40:16;98701.44;;;7.59;100.00
8160;BME280;27404;52.398;9.646;2024-02-23T10:42:44;98701.72;;;7.57;100.00
8160;BME280;27404;52.398;9.646;2024-02-23T10:45:21;98704.19;;;7.64;100.00
8160;BME280;27404;52.398;9.646;2024-02-23T10:47:53;98698.63;;;7.43;100.00
8160;BME280;27404;52.398;9.646;2024-02-23T10:50:21;98690.16;;;7.34;100.00
8160;BME280;27404;52.398;9.646;2024-02-23T10:52:48;98680.88;;;7.25;100.00
8160;BME280;27404;52.398;9.646;2024-02-23T10:55:14;98684.63;;;7.19;100.00
8160;BME280;27404;52.398;9.646;2024-02-23T10:57:39;98682.19;;;7.17;100.00
8160;BME280;27404;52.398;9.646;2024-02-23T11:00:07;98682.50;;;7.26;100.00
8160;BME280;27404;52.398;9.646;2024-02-23T11:02:48;98680.88;;;7.25;100.00
8160;BME280;27404;52.398;9.646;2024-02-23T11:05:15;98693.66;;;7.24;100.00
8160;BME280;27404;52.398;9.646;2024-02-23T11:07:41;98682.59;;;6.99;100.00
8160;BME280;27404;52.398;9.646;2024-02-23T11:10:07;98691.19;;;6.85;100.00
8160;BME280;27404;52.398;9.646;2024-02-23T11:12:34;98680.06;;;6.87;100.00
8160;BME280;27404;52.398;9.646;2024-02-23T11:15:01;98678.31;;;7.08;100.00
8160;BME280;27404;52.398;9.646;2024-02-23T11:17:28;98679.59;;;7.00;100.00
8160;BME280;27404;52.398;9.646;2024-02-23T11:19:55;98675.81;;;7.01;100.00
8160;BME280;27404;52.398;9.646;2024-02-23T11:24:51;98669.19;;;7.30;100.00
8160;BME280;27404;52.398;9.646;2024-02-23T11:27:16;98663.28;;;7.43;100.00
8160;BME280;27404;52.398;9.646;2024-02-23T11:29:46;98667.91;;;7.37;100.00
8160;BME280;27404;52.398;9.646;2024-02-23T11:32:16;98674.34;;;7.26;100.00
8160;BME280;27404;52.398;9.646;2024-02-23T11:34:54;98660.22;;;7.24;100.00
8160;BME280;27404;52.398;9.646;2024-02-23T11:37:20;98649.09;;;7.31;100.00
8160;BME280;27404;52.398;9.646;2024-02-23T11:39:46;98654.16;;;7.11;100.00
8160;BME280;27404;52.398;9.646;2024-02-23T11:42:12;98665.47;;;6.98;100.00
8160;BME280;27404;52.398;9.646;2024-02-23T11:44:37;98657.88;;;7.00;100.00
8160;BME280;27404;52.398;9.646;2024-02-23T11:47:03;98655.94;;;6.95;100.00
8160;BME280;27404;52.398;9.646;2024-02-23T11:49:29;98646.19;;;7.00;100.00
8160;BME280;27404;52.398;9.646;2024-02-23T11:51:55;98641.00;;;6.98;100.00
8160;BME280;27404;52.398;9.646;2024-02-23T11:54:21;98653.31;;;7.06;100.00
8160;BME280;27404;52.398;9.646;2024-02-23T11:56:48;98643.56;;;7.10;100.00
8160;BME280;27404;52.398;9.646;2024-02-23T11:59:24;98641.78;;;7.31;100.00
8160;BME280;27404;52.398;9.646;2024-02-23T12:01:50;98649.47;;;7.50;100.00
8160;BME280;27404;52.398;9.646;2024-02-23T12:04:15;98644.63;;;7.62;100.00
8160;BME280;27404;52.398;9.646;2024-02-23T12:06:42;98651.69;;;7.53;100.00
8160;BME280;27404;52.398;9.646;2024-02-23T12:09:07;98638.09;;;7.58;100.00
8160;BME280;27404;52.398;9.646;2024-02-23T12:11:33;98636.75;;;7.66;100.00
8160;BME280;27404;52.398;9.646;2024-02-23T12:14:00;98634.84;;;7.61;100.00
8160;BME280;27404;52.398;9.646;2024-02-23T12:16:27;98637.31;;;7.68;100.00
8160;BME280;27404;52.398;9.646;2024-02-23T12:18:56;98632.69;;;7.68;100.00
8160;BME280;27404;52.398;9.646;2024-02-23T12:21:23;98639.00;;;7.84;100.00
8160;BME280;27404;52.398;9.646;2024-02-23T12:23:49;98640.88;;;7.79;100.00
8160;BME280;27404;52.398;9.646;2024-02-23T12:26:17;98649.91;;;7.90;100.00
8160;BME280;27404;52.398;9.646;2024-02-23T12:28:43;98646.41;;;8.05;100.00
8160;BME280;27404;52.398;9.646;2024-02-23T12:31:09;98649.69;;;8.12;100.00
8160;BME280;27404;52.398;9.646;2024-02-23T12:33:39;98635.53;;;8.10;100.00
8160;BME280;27404;52.398;9.646;2024-02-23T12:36:05;98645.03;;;8.02;100.00
8160;BME280;27404;52.398;9.646;2024-02-23T12:38:31;98639.38;;;8.14;98.74
8160;BME280;27404;52.398;9.646;2024-02-23T12:40:57;98654.06;;;8.13;98.20
8160;BME280;27404;52.398;9.646;2024-02-23T12:43:24;98644.81;;;8.14;100.00
8160;BME280;27404;52.398;9.646;2024-02-23T12:45:53;98648.88;;;8.17;99.31
8160;BME280;27404;52.398;9.646;2024-02-23T12:48:20;98652.72;;;8.26;98.74
8160;BME280;27404;52.398;9.646;2024-02-23T12:50:46;98656.53;;;8.35;98.93
8160;BME280;27404;52.398;9.646;2024-02-23T12:53:34;98657.66;;;8.44;98.86
8160;BME280;27404;52.398;9.646;2024-02-23T12:56:09;98666.38;;;8.47;98.62
8160;BME280;27404;52.398;9.646;2024-02-23T12:58:39;98674.25;;;8.43;96.79
8160;BME280;27404;52.398;9.646;2024-02-23T13:01:05;98671.81;;;8.41;94.43
8160;BME280;27404;52.398;9.646;2024-02-23T13:03:32;98680.28;;;8.50;94.62
8160;BME280;27404;52.398;9.646;2024-02-23T13:05:58;98678.69;;;8.80;96.84
8160;BME280;27404;52.398;9.646;2024-02-23T13:08:24;98680.03;;;8.72;95.86